Time;durP1;ratioP1;P1;durP2;ratioP2;P2;SDS_P1;SDS_P2;PMS_P1;PMS_P2;Temp;Humidity;BMP_temperature;BMP_pressure;BME280_temperature;BME280_humidity;BME280_pressure;Samples;Min_cycle;Max_cycle;Signal;HPM_P1;HPM_P2
2024/03/03 00:01:58;;;;;;;9.10;5.40;;;;;;;3.22;78.12;101861.13;5032244;28;20509;-71
2024/03/03 00:04:25;;;;;;;10.67;5.90;;;;;;;3.22;78.21;101864.56;5032237;28;20486;-71
2024/03/03 00:06:52;;;;;;;7.63;5.30;;;;;;;3.22;78.24;101864.56;5035256;28;20446;-71
2024/03/03 00:09:20;;;;;;;9.47;6.53;;;;;;;3.22;78.05;101863.72;5036374;28;20446;-71
2024/03/03 00:11:47;;;;;;;8.30;5.77;;;;;;;3.22;78.24;101864.56;5036180;28;20468;-71
2024/03/03 00:14:14;;;;;;;9.20;5.37;;;;;;;3.23;78.15;101857.69;5036192;28;20955;-70
2024/03/03 00:16:41;;;;;;;8.33;5.87;;;;;;;3.23;78.13;101861.16;5036079;28;20445;-71
2024/03/03 00:19:08;;;;;;;10.27;5.90;;;;;;;3.23;78.20;101858.56;5035939;28;20448;-70
2024/03/03 00:21:35;;;;;;;9.33;5.70;;;;;;;3.20;78.18;101858.47;5036035;28;20922;-71
2024/03/03 00:24:03;;;;;;;11.50;6.43;;;;;;;3.22;78.35;101859.41;5035752;28;20535;-71
2024/03/03 00:26:33;;;;;;;11.00;5.93;;;;;;;3.21;78.10;101860.25;5036175;28;20502;-71
2024/03/03 00:28:59;;;;;;;9.23;5.80;;;;;;;3.21;78.09;101862.84;5035770;28;20454;-71
2024/03/03 00:31:26;;;;;;;9.60;6.13;;;;;;;3.20;78.18;101861.06;5035702;28;20954;-71
2024/03/03 00:33:54;;;;;;;8.30;5.67;;;;;;;3.20;78.05;101861.06;5035716;28;20441;-71
2024/03/03 00:36:22;;;;;;;9.73;5.33;;;;;;;3.20;77.99;101863.66;5035764;28;20908;-71
2024/03/03 00:38:48;;;;;;;9.83;5.90;;;;;;;3.20;78.12;101863.66;5035928;28;20447;-71
2024/03/03 00:41:15;;;;;;;9.47;5.90;;;;;;;3.19;77.99;101867.09;5035557;28;20445;-71
2024/03/03 00:43:44;;;;;;;10.20;6.00;;;;;;;3.18;77.76;101865.31;5035635;28;20445;-71
2024/03/03 00:46:10;;;;;;;8.80;5.60;;;;;;;3.14;77.84;101858.34;5035585;28;20482;-71
2024/03/03 00:48:37;;;;;;;10.57;6.00;;;;;;;3.12;77.84;101864.31;5035475;28;20950;-71
2024/03/03 00:51:04;;;;;;;9.93;6.83;;;;;;;3.08;77.72;101862.50;5035272;28;20440;-71
2024/03/03 00:53:31;;;;;;;10.63;6.33;;;;;;;3.03;77.78;101858.06;5035442;28;20479;-71
2024/03/03 00:55:58;;;;;;;9.73;5.87;;;;;;;3.05;77.65;101863.28;5035410;28;20484;-71
2024/03/03 00:58:25;;;;;;;10.17;5.97;;;;;;;3.05;77.85;101860.69;5034990;28;20442;-71
2024/03/03 01:00:53;;;;;;;9.33;5.67;;;;;;;3.04;77.80;101861.50;5035334;28;20815;-70
2024/03/03 01:03:20;;;;;;;9.40;6.13;;;;;;;3.05;77.93;101863.28;5035078;28;20436;-71
2024/03/03 01:05:47;;;;;;;9.93;5.57;;;;;;;3.04;77.89;101858.91;5035228;28;20489;-71
2024/03/03 01:08:14;;;;;;;10.33;5.57;;;;;;;3.04;77.81;101859.81;5035007;28;20922;-71
2024/03/03 01:10:41;;;;;;;8.43;5.40;;;;;;;3.04;77.68;101861.50;5035087;28;20441;-71
2024/03/03 01:13:08;;;;;;;10.43;5.80;;;;;;;3.03;77.75;101863.22;5034892;28;20957;-71
2024/03/03 01:15:35;;;;;;;7.40;5.23;;;;;;;3.03;77.71;101862.34;5034694;28;20446;-71
2024/03/03 01:18:03;;;;;;;8.03;5.83;;;;;;;3.02;77.81;101858.91;5014299;28;20440;-71
2024/03/03 01:20:30;;;;;;;9.23;5.47;;;;;;;2.98;77.86;101866.53;5014981;28;20448;-71
2024/03/03 01:22:57;;;;;;;9.77;5.73;;;;;;;2.99;77.83;101856.25;5015378;28;20451;-75
2024/03/03 01:25:24;;;;;;;8.97;6.20;;;;;;;2.97;77.74;101859.63;5014968;28;20493;-76
2024/03/03 01:27:52;;;;;;;12.73;5.70;;;;;;;2.93;77.78;101858.66;5015059;28;20535;-76
2024/03/03 01:30:18;;;;;;;8.63;5.67;;;;;;;2.90;77.67;101862.88;5015035;28;20517;-76
2024/03/03 01:32:45;;;;;;;7.17;4.93;;;;;;;2.88;77.73;101868.00;5014885;28;20447;-71
2024/03/03 01:35:14;;;;;;;9.13;4.93;;;;;;;2.89;77.96;101871.47;5014941;28;20430;-71
2024/03/03 01:37:40;;;;;;;6.57;4.80;;;;;;;2.88;77.86;101867.13;5014771;28;20438;-71
2024/03/03 01:40:09;;;;;;;8.53;4.87;;;;;;;2.88;77.71;101865.44;5014715;28;20446;-71
2024/03/03 01:42:35;;;;;;;10.10;5.27;;;;;;;2.88;77.78;101870.59;5014642;28;20442;-71
2024/03/03 01:45:02;;;;;;;8.37;5.10;;;;;;;2.87;77.85;101866.28;5014518;28;20476;-72
2024/03/03 01:47:30;;;;;;;10.47;6.13;;;;;;;2.85;77.87;101870.50;5014558;28;20445;-71
2024/03/03 01:49:58;;;;;;;8.43;5.47;;;;;;;2.84;77.88;101868.75;5014425;28;20783;-71
2024/03/03 01:52:28;;;;;;;10.20;5.63;;;;;;;2.83;77.81;101867.00;5014563;28;20441;-72
2024/03/03 01:54:55;;;;;;;7.33;4.90;;;;;;;2.81;77.95;101869.56;5014251;28;20472;-71
2024/03/03 01:57:22;;;;;;;10.50;4.87;;;;;;;2.81;77.83;101874.75;5014412;28;20926;-71
2024/03/03 01:59:52;;;;;;;6.60;4.83;;;;;;;2.82;78.03;101876.47;5014305;28;21041;-71
2024/03/03 02:02:19;;;;;;;7.27;4.83;;;;;;;2.81;77.95;101864.41;5014388;28;20444;-71
2024/03/03 02:04:46;;;;;;;7.03;5.20;;;;;;;2.82;77.97;101876.47;5014127;28;20489;-71
2024/03/03 02:07:14;;;;;;;10.07;4.83;;;;;;;2.81;78.08;101869.56;5014074;28;20549;-71
2024/03/03 02:09:45;;;;;;;7.80;4.90;;;;;;;2.82;77.72;101871.31;5014264;28;20438;-71
2024/03/03 02:12:12;;;;;;;9.23;5.23;;;;;;;2.82;78.05;101876.47;5014047;28;20940;-71
2024/03/03 02:14:39;;;;;;;9.57;5.17;;;;;;;2.79;77.57;101866.06;5014001;28;20441;-71
2024/03/03 02:17:06;;;;;;;7.30;4.83;;;;;;;2.79;77.67;101865.19;5014224;28;20439;-71
2024/03/03 02:19:37;;;;;;;8.77;4.93;;;;;;;2.79;78.12;101870.34;5014004;28;20442;-71
2024/03/03 02:22:05;;;;;;;8.13;5.67;;;;;;;2.78;78.21;101873.75;5013999;28;20447;-71
2024/03/03 02:24:32;;;;;;;6.60;4.83;;;;;;;2.76;78.19;101871.16;5013850;28;20433;-72
2024/03/03 02:27:00;;;;;;;8.23;5.10;;;;;;;2.76;78.14;101867.69;5013767;28;20460;-71
2024/03/03 02:29:28;;;;;;;9.67;4.83;;;;;;;2.76;78.26;101865.09;5013575;28;20434;-71
2024/03/03 02:31:55;;;;;;;8.97;5.00;;;;;;;2.75;77.95;101864.22;5013700;28;20455;-75
2024/03/03 02:34:22;;;;;;;7.33;4.53;;;;;;;2.73;78.11;101865.00;5013705;28;20527;-75
2024/03/03 02:36:48;;;;;;;7.20;4.50;;;;;;;2.72;78.15;101866.72;5013766;28;20449;-75
2024/03/03 02:39:17;;;;;;;9.97;4.97;;;;;;;2.71;78.46;101866.69;5013504;28;20500;-75
2024/03/03 02:41:44;;;;;;;7.60;4.93;;;;;;;2.68;78.20;101874.34;5013808;28;20219;-71
2024/03/03 02:44:10;;;;;;;8.07;5.10;;;;;;;2.70;78.20;101870.09;5013591;28;20446;-71
2024/03/03 02:46:36;;;;;;;10.73;5.40;;;;;;;2.69;78.29;101868.34;5013667;28;20822;-71
2024/03/03 02:49:04;;;;;;;8.90;5.00;;;;;;;2.68;78.22;101871.78;5013456;28;20451;-71
2024/03/03 02:51:30;;;;;;;8.20;5.03;;;;;;;2.66;78.29;101868.25;5013617;28;20203;-71
2024/03/03 02:53:57;;;;;;;7.63;4.67;;;;;;;2.65;78.21;101871.69;5013311;28;20949;-71
2024/03/03 02:56:26;;;;;;;9.00;5.30;;;;;;;2.64;78.49;101875.97;5013416;28;20476;-71
2024/03/03 02:58:52;;;;;;;7.47;5.13;;;;;;;2.64;78.20;101881.13;5032257;28;20480;-71
2024/03/03 03:01:19;;;;;;;7.63;4.70;;;;;;;2.61;78.18;101875.88;5033006;28;20448;-71
2024/03/03 03:03:46;;;;;;;7.83;5.50;;;;;;;2.61;78.42;101875.88;5032954;28;20451;-71
2024/03/03 03:06:13;;;;;;;8.00;5.20;;;;;;;2.60;78.32;101877.59;5032750;28;21059;-71
2024/03/03 03:08:40;;;;;;;7.53;4.57;;;;;;;2.58;78.30;101868.03;5032901;28;20436;-71
2024/03/03 03:11:07;;;;;;;8.07;4.47;;;;;;;2.57;78.38;101880.09;5032794;28;20817;-71
2024/03/03 03:13:35;;;;;;;8.47;4.43;;;;;;;2.57;78.36;101879.22;5032853;28;20443;-72
2024/03/03 03:16:05;;;;;;;7.63;5.00;;;;;;;2.57;78.73;101879.22;5032829;28;20935;-71
2024/03/03 03:18:32;;;;;;;7.03;4.50;;;;;;;2.56;78.53;101882.66;5032884;28;20434;-71
2024/03/03 03:20:59;;;;;;;8.53;5.30;;;;;;;2.55;78.50;101886.03;5032709;28;20442;-71
2024/03/03 03:23:26;;;;;;;7.47;4.47;;;;;;;2.53;78.48;101883.44;5032748;28;20494;-71
2024/03/03 03:25:53;;;;;;;7.13;4.80;;;;;;;2.53;78.52;101893.78;5032628;28;20981;-71
2024/03/03 03:28:20;;;;;;;8.30;5.00;;;;;;;2.53;78.69;101895.44;5032642;28;20439;-72
2024/03/03 03:30:49;;;;;;;6.67;4.53;;;;;;;2.53;78.72;101898.94;5032626;28;20449;-71
2024/03/03 03:33:16;;;;;;;7.97;4.70;;;;;;;2.52;78.75;101892.00;5032982;28;20451;-71
2024/03/03 03:35:43;;;;;;;7.43;4.30;;;;;;;2.54;78.65;101894.63;5032585;28;21008;-71
2024/03/03 03:38:10;;;;;;;8.93;4.90;;;;;;;2.56;79.04;101890.41;5032569;28;20448;-71
2024/03/03 03:40:38;;;;;;;9.17;5.10;;;;;;;2.56;78.47;101891.28;5033609;28;20446;-71
2024/03/03 03:43:06;;;;;;;5.93;4.50;;;;;;;2.58;78.66;101886.13;5036534;28;20452;-70
2024/03/03 03:45:33;;;;;;;8.87;5.07;;;;;;;2.58;78.75;101892.16;5036732;28;20484;-70
2024/03/03 03:48:01;;;;;;;6.80;4.67;;;;;;;2.57;78.70;101885.25;5036644;28;20825;-70
2024/03/03 03:50:28;;;;;;;6.83;5.07;;;;;;;2.58;78.57;101892.16;5036534;28;20437;-70
2024/03/03 03:52:55;;;;;;;8.80;4.90;;;;;;;2.59;78.72;101890.47;5036585;28;20450;-69
2024/03/03 03:55:22;;;;;;;6.23;3.93;;;;;;;2.61;78.65;101896.53;5036282;28;20483;-68
2024/03/03 03:57:48;;;;;;;6.63;4.03;;;;;;;2.56;78.61;101888.69;5036504;28;20447;-68
2024/03/03 04:00:16;;;;;;;6.13;4.60;;;;;;;2.61;78.57;101891.38;5036301;28;20454;-68
2024/03/03 04:02:43;;;;;;;8.67;4.53;;;;;;;2.60;78.34;101884.47;5036501;28;20439;-68
2024/03/03 04:05:11;;;;;;;6.77;4.30;;;;;;;2.60;78.32;101884.47;5036161;28;20448;-68
2024/03/03 04:07:39;;;;;;;8.40;4.53;;;;;;;2.61;78.66;101893.97;5036152;28;20438;-68
2024/03/03 04:10:08;;;;;;;7.90;4.40;;;;;;;2.59;78.60;101893.06;5036427;28;20525;-68
2024/03/03 04:12:35;;;;;;;7.63;5.10;;;;;;;2.57;78.49;101894.72;5036167;28;20683;-68
2024/03/03 04:15:02;;;;;;;7.27;4.63;;;;;;;2.56;78.60;101887.81;5036541;28;20953;-68
2024/03/03 04:17:29;;;;;;;8.50;5.00;;;;;;;2.50;78.42;101885.03;5036007;28;20442;-68
2024/03/03 04:19:55;;;;;;;6.67;4.47;;;;;;;2.50;78.55;101888.53;5036041;28;20444;-68
2024/03/03 04:22:24;;;;;;;7.63;4.50;;;;;;;2.49;78.59;101885.88;5035988;28;20437;-68
2024/03/03 04:24:51;;;;;;;7.60;4.57;;;;;;;2.47;78.56;101882.38;5036204;28;20446;-69
2024/03/03 04:27:17;;;;;;;7.37;4.63;;;;;;;2.45;78.72;101887.50;5035673;28;20480;-67
2024/03/03 04:29:48;;;;;;;8.63;5.60;;;;;;;2.47;78.70;101892.69;5035996;28;20452;-68
2024/03/03 04:32:15;;;;;;;9.17;5.17;;;;;;;2.45;78.75;101889.22;5035759;28;20443;-68
2024/03/03 04:34:42;;;;;;;6.57;4.90;;;;;;;2.44;78.69;101890.03;5035712;28;20440;-68
2024/03/03 04:37:09;;;;;;;8.83;4.80;;;;;;;2.41;78.74;101888.22;5035975;28;20450;-68
2024/03/03 04:39:38;;;;;;;11.07;5.87;;;;;;;2.41;78.83;101895.09;5035525;28;20444;-68
2024/03/03 04:42:05;;;;;;;7.10;4.63;;;;;;;2.40;78.92;101888.22;5035730;28;20447;-68
2024/03/03 04:44:32;;;;;;;9.63;4.70;;;;;;;2.40;78.87;101890.78;5035661;28;21060;-68
2024/03/03 04:46:59;;;;;;;8.03;4.77;;;;;;;2.41;78.88;101889.94;5035395;28;20470;-68
2024/03/03 04:49:26;;;;;;;6.70;4.30;;;;;;;2.38;78.83;101896.75;5035476;28;20446;-68
2024/03/03 04:51:52;;;;;;;9.60;4.90;;;;;;;2.38;78.91;101899.34;5035352;28;20428;-69
2024/03/03 04:54:19;;;;;;;7.97;5.20;;;;;;;2.36;78.93;101893.28;5016648;28;20454;-69
2024/03/03 04:56:47;;;;;;;7.93;4.33;;;;;;;2.37;78.96;101895.03;5020544;28;20474;-70
2024/03/03 04:59:14;;;;;;;10.10;5.23;;;;;;;2.35;78.80;101901.84;5035214;28;20436;-69
2024/03/03 05:01:42;;;;;;;8.30;4.90;;;;;;;2.35;78.94;101894.09;5035262;28;21024;-71
2024/03/03 05:04:10;;;;;;;9.33;4.63;;;;;;;2.36;79.21;101898.44;5035297;28;20496;-71
2024/03/03 05:06:44;;;;;;;10.00;4.67;;;;;;;2.37;79.02;101901.91;5035371;28;20525;-71
2024/03/03 05:09:11;;;;;;;6.63;4.27;;;;;;;2.38;78.97;101901.06;5035482;28;20435;-71
2024/03/03 05:11:38;;;;;;;7.27;4.50;;;;;;;2.37;78.97;101905.34;5035045;28;20437;-71
2024/03/03 05:14:06;;;;;;;5.67;4.40;;;;;;;2.40;79.06;101901.13;5035022;28;20446;-70
2024/03/03 05:16:33;;;;;;;9.07;4.70;;;;;;;2.41;79.30;101898.56;5035114;28;20438;-71
2024/03/03 05:19:00;;;;;;;10.27;5.20;;;;;;;2.42;79.49;101897.75;5034796;28;20454;-71
2024/03/03 05:21:28;;;;;;;7.67;4.70;;;;;;;2.44;79.05;101892.63;5035021;28;20431;-71
2024/03/03 05:23:55;;;;;;;8.43;4.90;;;;;;;2.44;79.37;101895.19;5034947;28;20443;-71
2024/03/03 05:26:23;;;;;;;10.37;5.17;;;;;;;2.45;79.05;101899.56;5035180;28;20486;-70
2024/03/03 05:28:50;;;;;;;8.20;5.03;;;;;;;2.46;79.07;101898.72;5034657;28;20445;-71
2024/03/03 05:31:18;;;;;;;6.80;4.53;;;;;;;2.47;79.06;101896.19;5034650;28;20446;-71
2024/03/03 05:33:45;;;;;;;8.83;5.13;;;;;;;2.47;79.29;101895.28;5034641;28;20451;-71
2024/03/03 05:36:13;;;;;;;9.07;5.20;;;;;;;2.49;79.16;101893.63;5034658;28;20478;-70
2024/03/03 05:38:40;;;;;;;8.10;5.33;;;;;;;2.49;79.14;101894.50;5034522;28;20858;-71
2024/03/03 05:41:07;;;;;;;10.20;5.90;;;;;;;2.50;79.28;101891.09;5034634;28;20431;-71
2024/03/03 05:43:34;;;;;;;8.90;4.90;;;;;;;2.50;79.00;101898.84;5034656;28;21225;-71
2024/03/03 05:46:01;;;;;;;10.23;5.40;;;;;;;2.51;79.04;101897.13;5034295;28;20982;-71
2024/03/03 05:48:29;;;;;;;8.40;5.00;;;;;;;2.51;79.06;101900.59;5034328;28;20437;-71
2024/03/03 05:50:56;;;;;;;10.47;5.60;;;;;;;2.52;79.07;101898.88;5034265;28;20449;-70
2024/03/03 05:53:23;;;;;;;9.10;5.23;;;;;;;2.51;78.95;101904.88;5034275;28;20439;-71
2024/03/03 05:55:50;;;;;;;9.93;5.77;;;;;;;2.49;79.08;101906.53;5034395;28;20467;-71
2024/03/03 05:58:16;;;;;;;12.90;6.40;;;;;;;2.49;79.07;101911.72;5034024;28;20451;-71
2024/03/03 06:00:43;;;;;;;9.03;5.47;;;;;;;2.47;78.90;101905.63;5034121;28;20441;-71
2024/03/03 06:03:10;;;;;;;10.17;6.03;;;;;;;2.47;79.14;101905.63;5033675;28;20446;-68
2024/03/03 06:05:38;;;;;;;9.90;5.60;;;;;;;2.45;79.20;101899.56;5033882;28;20469;-68
2024/03/03 06:08:06;;;;;;;9.70;6.53;;;;;;;2.45;79.40;101900.41;5034056;28;20440;-68
2024/03/03 06:10:33;;;;;;;11.20;6.37;;;;;;;2.44;79.14;101901.22;5033809;28;20433;-69
2024/03/03 06:12:59;;;;;;;11.37;6.37;;;;;;;2.43;79.21;101896.91;5034090;28;20442;-70
2024/03/03 06:15:26;;;;;;;10.00;5.83;;;;;;;2.40;78.86;101899.41;5033841;28;20459;-70
2024/03/03 06:17:53;;;;;;;10.87;5.90;;;;;;;2.40;79.31;101895.94;5034034;28;20444;-70
2024/03/03 06:20:20;;;;;;;11.03;6.10;;;;;;;2.40;79.49;101895.94;5033683;28;20440;-70
2024/03/03 06:22:49;;;;;;;10.33;6.60;;;;;;;2.40;79.29;101909.75;5033731;28;20436;-71
2024/03/03 06:25:15;;;;;;;10.93;6.17;;;;;;;2.41;79.47;101914.06;5033616;28;20814;-70
2024/03/03 06:27:42;;;;;;;14.13;5.80;;;;;;;2.40;79.44;101914.91;5033730;28;21022;-70
2024/03/03 06:30:10;;;;;;;10.13;6.60;;;;;;;2.40;79.54;101921.78;5033472;28;20454;-70
2024/03/03 06:32:37;;;;;;;9.30;6.20;;;;;;;2.39;79.63;101920.91;5033454;28;20864;-69
2024/03/03 06:35:05;;;;;;;9.73;5.23;;;;;;;2.39;79.45;101915.75;5033611;28;20500;-70
2024/03/03 06:37:32;;;;;;;11.30;6.33;;;;;;;2.39;79.63;101920.91;5033399;28;20508;-70
2024/03/03 06:40:01;;;;;;;10.77;6.53;;;;;;;2.40;79.59;101922.66;5033600;28;20487;-69
2024/03/03 06:42:29;;;;;;;10.33;5.87;;;;;;;2.41;79.58;101920.94;5033307;28;20439;-69
2024/03/03 06:44:56;;;;;;;15.97;6.33;;;;;;;2.42;79.68;101920.13;5033244;28;20464;-69
2024/03/03 06:47:24;;;;;;;12.53;6.63;;;;;;;2.41;79.50;101923.53;5033261;28;20484;-68
2024/03/03 06:49:52;;;;;;;13.40;6.43;;;;;;;2.41;79.79;101921.81;4992385;28;20498;-69
2024/03/03 06:52:19;;;;;;;10.13;6.63;;;;;;;2.41;79.79;101931.28;5052516;28;20448;-68
2024/03/03 06:54:45;;;;;;;9.43;6.30;;;;;;;2.41;79.50;101931.28;5052993;28;20473;-70
2024/03/03 06:57:14;;;;;;;9.90;6.40;;;;;;;2.41;79.83;101933.84;5052918;28;20442;-69
2024/03/03 06:59:41;;;;;;;11.83;7.07;;;;;;;2.41;80.02;101934.72;5052932;28;20460;-69
2024/03/03 07:02:08;;;;;;;10.73;6.50;;;;;;;2.43;79.96;101932.19;5053051;28;20449;-69
2024/03/03 07:04:34;;;;;;;12.13;7.37;;;;;;;2.43;79.89;101937.38;5052865;28;20951;-70
2024/03/03 07:07:02;;;;;;;13.90;7.20;;;;;;;2.44;80.03;101931.34;5053051;28;20486;-70
2024/03/03 07:09:29;;;;;;;13.43;7.07;;;;;;;2.44;80.19;101933.94;5053043;28;20793;-70
2024/03/03 07:11:56;;;;;;;13.03;7.63;;;;;;;2.46;80.14;101932.28;5052746;28;20459;-75
2024/03/03 07:14:26;;;;;;;14.70;7.50;;;;;;;2.47;80.30;101934.03;5052485;28;20920;-75
2024/03/03 07:16:53;;;;;;;12.37;7.10;;;;;;;2.48;80.23;101930.63;5051973;28;20482;-75
2024/03/03 07:19:20;;;;;;;14.23;7.07;;;;;;;2.49;80.29;101937.53;5052573;28;20523;-75
2024/03/03 07:21:47;;;;;;;12.43;7.60;;;;;;;2.51;80.36;101943.63;5053036;28;20441;-71
2024/03/03 07:24:14;;;;;;;14.03;7.07;;;;;;;2.52;80.40;101937.63;5052600;28;20443;-71
2024/03/03 07:26:41;;;;;;;10.50;7.10;;;;;;;2.53;80.26;101937.69;5052536;28;20481;-71
2024/03/03 07:29:08;;;;;;;13.70;6.77;;;;;;;2.54;80.28;101939.44;5052550;28;20442;-71
2024/03/03 07:31:37;;;;;;;12.43;7.00;;;;;;;2.56;80.24;101934.31;5052505;28;20432;-71
2024/03/03 07:34:04;;;;;;;11.90;6.83;;;;;;;2.57;80.20;101938.66;5052414;28;20938;-71
2024/03/03 07:36:31;;;;;;;12.57;7.60;;;;;;;2.59;80.49;101940.44;5052826;28;20447;-71
2024/03/03 07:38:58;;;;;;;11.63;6.57;;;;;;;2.63;80.25;101943.13;5039248;28;20446;-71
2024/03/03 07:41:24;;;;;;;14.97;7.50;;;;;;;2.64;80.25;101942.28;5032495;28;20440;-71
2024/03/03 07:43:52;;;;;;;11.63;6.33;;;;;;;2.65;80.09;101939.75;5032454;28;20443;-71
2024/03/03 07:46:19;;;;;;;14.67;7.43;;;;;;;2.67;80.22;101943.25;5032338;28;20431;-71
2024/03/03 07:48:47;;;;;;;13.37;6.80;;;;;;;2.69;80.07;101938.97;5032677;28;20448;-71
2024/03/03 07:51:14;;;;;;;12.13;6.90;;;;;;;2.69;80.24;101933.81;5032432;28;20454;-72
2024/03/03 07:53:41;;;;;;;12.67;6.70;;;;;;;2.73;80.14;101938.25;5032274;28;20435;-71
2024/03/03 07:56:08;;;;;;;16.03;7.43;;;;;;;2.74;80.10;101940.00;5032836;28;20466;-71
2024/03/03 07:58:36;;;;;;;14.00;7.50;;;;;;;2.76;79.92;101942.63;5032467;28;20494;-72
2024/03/03 08:01:05;;;;;;;11.80;6.47;;;;;;;2.79;80.03;101946.19;5032405;28;20447;-71
2024/03/03 08:03:32;;;;;;;12.83;7.33;;;;;;;2.80;80.29;101937.56;5032552;28;20451;-71
2024/03/03 08:06:01;;;;;;;13.70;7.87;;;;;;;2.82;80.16;101941.09;5032187;28;20441;-71
2024/03/03 08:08:28;;;;;;;11.73;7.40;;;;;;;2.86;79.91;101938.59;5032318;28;20484;-71
2024/03/03 08:10:55;;;;;;;14.53;7.93;;;;;;;2.88;80.09;101942.97;5032405;28;20442;-72
2024/03/03 08:13:22;;;;;;;15.83;8.37;;;;;;;2.89;80.07;101941.25;5032637;28;20445;-71
2024/03/03 08:15:48;;;;;;;11.03;6.20;;;;;;;2.91;79.96;101942.19;5032176;28;20448;-73
2024/03/03 08:18:15;;;;;;;12.90;7.70;;;;;;;2.87;80.17;101932.56;5032334;28;20452;-70
2024/03/03 08:20:44;;;;;;;11.90;7.13;;;;;;;2.95;79.96;101928.50;5032254;28;20438;-70
2024/03/03 08:23:14;;;;;;;12.87;6.80;;;;;;;2.97;79.97;101939.75;5032239;28;20453;-70
2024/03/03 08:25:41;;;;;;;11.90;6.70;;;;;;;2.99;79.94;101940.69;5032226;28;20813;-70
2024/03/03 08:28:08;;;;;;;12.93;7.80;;;;;;;3.01;80.04;101939.91;5035164;28;20876;-72
2024/03/03 08:30:36;;;;;;;14.50;8.63;;;;;;;3.03;79.97;101934.75;5035777;28;20514;-72
2024/03/03 08:33:03;;;;;;;13.23;7.73;;;;;;;3.06;79.91;101938.28;5035803;28;20461;-72
2024/03/03 08:35:30;;;;;;;15.47;7.87;;;;;;;3.08;79.81;101935.75;5035870;28;20445;-72
2024/03/03 08:37:56;;;;;;;12.57;7.60;;;;;;;3.11;79.78;101941.00;5035652;28;20448;-72
2024/03/03 08:40:25;;;;;;;13.20;7.00;;;;;;;3.13;79.84;101941.94;5035941;28;20438;-72
2024/03/03 08:42:52;;;;;;;15.17;8.33;;;;;;;3.13;79.67;101939.34;5035648;28;20428;-72
2024/03/03 08:45:18;;;;;;;14.13;7.17;;;;;;;3.15;79.63;101941.97;5035581;28;20437;-71
2024/03/03 08:47:45;;;;;;;13.33;8.20;;;;;;;3.16;79.58;101943.72;5035472;28;20485;-72
2024/03/03 08:50:14;;;;;;;15.27;7.90;;;;;;;3.18;79.67;101942.91;5035396;28;20525;-71
2024/03/03 08:52:41;;;;;;;13.37;6.90;;;;;;;3.20;79.71;101943.81;5035631;28;20451;-71
2024/03/03 08:55:08;;;;;;;14.73;7.90;;;;;;;3.23;79.62;101951.66;5035143;28;20466;-72
2024/03/03 08:57:36;;;;;;;13.13;7.43;;;;;;;3.25;79.55;101952.59;5054515;28;20921;-72
2024/03/03 09:00:10;;;;;;;12.17;7.40;;;;;;;3.28;79.63;101947.50;5055136;28;20445;-71
2024/03/03 09:02:37;;;;;;;12.07;7.03;;;;;;;3.30;79.50;101950.13;5055289;28;20491;-71
2024/03/03 09:05:04;;;;;;;14.77;7.43;;;;;;;3.32;79.67;101950.16;5055244;28;20443;-71
2024/03/03 09:07:32;;;;;;;12.30;7.13;;;;;;;3.36;79.51;101952.00;5054905;28;20478;-71
2024/03/03 09:09:59;;;;;;;11.40;7.30;;;;;;;3.37;79.58;101946.84;5055247;28;20437;-72
2024/03/03 09:12:26;;;;;;;12.50;6.87;;;;;;;3.40;79.47;101957.28;5054983;28;20448;-72
2024/03/03 09:14:55;;;;;;;15.17;7.43;;;;;;;3.41;79.38;101955.56;5054913;28;20529;-71
2024/03/03 09:17:22;;;;;;;15.77;7.83;;;;;;;3.47;79.48;101955.75;5054861;28;20452;-72
2024/03/03 09:19:49;;;;;;;11.93;7.57;;;;;;;3.51;79.41;101952.38;5054880;28;20442;-71
2024/03/03 09:22:16;;;;;;;12.07;7.23;;;;;;;3.53;79.52;101955.91;5054754;28;20845;-71
2024/03/03 09:24:46;;;;;;;13.00;7.57;;;;;;;3.56;79.39;101945.63;5054902;28;20439;-71
2024/03/03 09:27:12;;;;;;;12.60;7.50;;;;;;;3.58;79.17;101959.47;5054924;28;20486;-72
2024/03/03 09:29:40;;;;;;;12.43;7.30;;;;;;;3.60;79.20;101952.59;5054657;28;20444;-71
2024/03/03 09:32:09;;;;;;;12.33;7.43;;;;;;;3.63;79.20;101952.69;5054657;28;20445;-75
2024/03/03 09:34:36;;;;;;;13.03;8.07;;;;;;;3.66;79.17;101947.56;5054677;28;20504;-75
2024/03/03 09:37:03;;;;;;;12.53;8.13;;;;;;;3.68;79.09;101953.69;5054683;28;20429;-75
2024/03/03 09:39:30;;;;;;;15.10;8.63;;;;;;;3.70;78.90;101958.91;5053494;28;20517;-75
2024/03/03 09:41:58;;;;;;;15.70;7.57;;;;;;;3.72;78.84;101957.22;5054561;28;20439;-68
2024/03/03 09:44:27;;;;;;;11.20;7.20;;;;;;;3.74;78.86;101953.81;5055017;28;20431;-67
2024/03/03 09:46:55;;;;;;;12.67;7.60;;;;;;;3.76;78.58;101959.06;5054232;28;20911;-68
2024/03/03 09:49:25;;;;;;;11.97;7.23;;;;;;;3.77;78.58;101959.91;5054370;28;20448;-68
2024/03/03 09:51:52;;;;;;;12.03;7.20;;;;;;;3.78;78.64;101961.66;5054221;28;20442;-69
2024/03/03 09:54:20;;;;;;;12.93;8.10;;;;;;;3.79;78.59;101971.19;5054448;28;20800;-69
2024/03/03 09:56:51;;;;;;;13.60;6.90;;;;;;;3.81;78.50;101972.09;5053891;28;20471;-68
2024/03/03 09:59:18;;;;;;;14.47;8.23;;;;;;;3.82;78.32;101960.91;5054531;28;20460;-68
2024/03/03 10:01:50;;;;;;;15.07;7.90;;;;;;;3.83;78.35;101963.53;5054013;28;20447;-68
2024/03/03 10:04:18;;;;;;;11.77;7.93;;;;;;;3.85;78.35;101968.75;5053971;28;20430;-68
2024/03/03 10:06:50;;;;;;;12.93;7.23;;;;;;;3.86;78.09;101960.13;5053801;28;20930;-68
2024/03/03 10:09:19;;;;;;;12.57;8.03;;;;;;;3.88;78.26;101968.81;5053876;28;20852;-68
2024/03/03 10:11:47;;;;;;;15.20;8.63;;;;;;;3.89;77.92;101967.97;5053759;28;20444;-69
2024/03/03 10:14:16;;;;;;;13.13;7.80;;;;;;;3.91;78.02;101972.34;5053858;28;20437;-69
2024/03/03 10:16:43;;;;;;;14.27;7.37;;;;;;;3.93;78.17;101972.41;5053810;28;20441;-68
2024/03/03 10:19:10;;;;;;;13.23;7.10;;;;;;;3.94;77.83;101968.97;5053658;28;20438;-68
2024/03/03 10:21:38;;;;;;;13.60;7.37;;;;;;;3.96;77.84;101962.13;5053728;28;20444;-68
2024/03/03 10:24:24;;;;;;;12.80;7.67;;;;;;;3.97;78.05;101961.28;5053684;28;20433;-68
2024/03/03 10:26:53;;;;;;;10.30;7.30;;;;;;;3.97;77.86;101958.69;5053553;28;20854;-68
2024/03/03 10:29:20;;;;;;;13.33;7.03;;;;;;;4.00;77.79;101963.06;5053387;28;20484;-68
2024/03/03 10:31:48;;;;;;;12.07;7.40;;;;;;;4.00;77.76;101966.50;5053703;28;20809;-68
2024/03/03 10:34:15;;;;;;;15.17;7.00;;;;;;;4.02;77.73;101967.44;5053520;28;20442;-69
2024/03/03 10:36:42;;;;;;;11.83;7.17;;;;;;;4.04;77.45;101964.88;5053497;28;20446;-68
2024/03/03 10:39:11;;;;;;;14.43;8.17;;;;;;;4.05;77.66;101956.28;5053387;28;20437;-68
2024/03/03 10:41:40;;;;;;;13.23;7.93;;;;;;;4.07;77.44;101964.97;5053210;28;20444;-73
2024/03/03 10:44:09;;;;;;;13.73;7.37;;;;;;;4.07;77.37;101954.59;5053392;28;20466;-74
2024/03/03 10:46:38;;;;;;;12.30;7.37;;;;;;;4.05;77.52;101954.56;5053429;28;20847;-75
2024/03/03 10:49:05;;;;;;;12.90;7.50;;;;;;;4.10;77.36;101950.38;5052979;28;20480;-74
2024/03/03 10:51:33;;;;;;;10.53;7.67;;;;;;;4.12;77.09;101958.16;5053132;28;20436;-70
2024/03/03 10:54:01;;;;;;;13.77;8.13;;;;;;;4.11;76.89;101951.22;5053035;28;20441;-70
2024/03/03 10:56:28;;;;;;;14.90;7.80;;;;;;;4.12;76.94;101951.28;5052543;28;21020;-69
2024/03/03 10:58:58;;;;;;;12.00;7.03;;;;;;;4.15;77.29;101953.94;5053097;28;20919;-70
2024/03/03 11:01:26;;;;;;;12.17;8.13;;;;;;;4.14;76.81;101954.75;5053051;28;20442;-70
2024/03/03 11:03:53;;;;;;;15.50;7.67;;;;;;;4.17;77.04;101949.66;5052994;28;20439;-70
2024/03/03 11:06:22;;;;;;;10.07;6.37;;;;;;;4.19;77.04;101947.97;5052816;28;20440;-69
2024/03/03 11:08:51;;;;;;;13.17;7.90;;;;;;;4.22;77.22;101942.00;5052897;28;20481;-71
2024/03/03 11:11:21;;;;;;;13.67;8.40;;;;;;;4.25;76.92;101946.38;5052986;28;20468;-70
2024/03/03 11:14:06;;;;;;;10.37;7.00;;;;;;;4.31;77.18;101959.44;5052691;28;20203;-70
2024/03/03 11:16:34;;;;;;;14.53;7.50;;;;;;;4.33;76.98;101957.78;5052771;28;20524;-70
2024/03/03 11:19:04;;;;;;;14.17;8.17;;;;;;;4.36;76.89;101950.06;5052739;28;20914;-71
2024/03/03 11:21:36;;;;;;;15.20;7.47;;;;;;;4.40;76.93;101954.47;5052622;28;20471;-70
2024/03/03 11:24:05;;;;;;;13.43;8.13;;;;;;;4.42;76.49;101952.78;5052782;28;20430;-70
2024/03/03 11:26:40;;;;;;;14.53;7.87;;;;;;;4.44;76.46;101953.72;5052534;28;20445;-71
2024/03/03 11:29:09;;;;;;;14.70;7.60;;;;;;;4.47;76.51;101951.19;5052523;28;20481;-69
2024/03/03 11:31:37;;;;;;;13.60;7.90;;;;;;;4.49;76.21;101949.47;5052482;28;20452;-71